Time;durP1;ratioP1;P1;durP2;ratioP2;P2;SDS_P1;SDS_P2;PMS_P1;PMS_P2;Temp;Humidity;BMP_temperature;BMP_pressure;BME280_temperature;BME280_humidity;BME280_pressure;Samples;Min_cycle;Max_cycle;Signal;HPM_P1;HPM_P2
2023/05/22 00:00:39;;;;;;;7.97;5.72;;;;;;;;;;5054189;28;20025;-80
2023/05/22 00:03:04;;;;;;;9.63;5.97;;;;;;;;;;5054992;28;20028;-79
2023/05/22 00:05:33;;;;;;;10.88;6.40;;;;;;;;;;5055885;28;20261;-80
2023/05/22 00:07:58;;;;;;;9.68;6.25;;;;;;;;;;5056446;28;20017;-80
2023/05/22 00:10:23;;;;;;;7.50;5.88;;;;;;;;;;5056029;28;20167;-80
2023/05/22 00:12:49;;;;;;;10.18;6.30;;;;;;;;;;5037904;28;20025;-79
2023/05/22 00:15:14;;;;;;;10.80;6.30;;;;;;;;;;5056841;28;20025;-80
2023/05/22 00:17:39;;;;;;;8.38;6.22;;;;;;;;;;5056735;28;20300;-79
2023/05/22 00:20:07;;;;;;;13.80;6.18;;;;;;;;;;5056428;28;20021;-80
2023/05/22 00:22:36;;;;;;;10.05;6.05;;;;;;;;;;5056746;28;20024;-80
2023/05/22 00:25:02;;;;;;;10.30;6.40;;;;;;;;;;5037768;28;20050;-79
2023/05/22 00:27:27;;;;;;;8.82;6.32;;;;;;;;;;5056223;28;20597;-80
2023/05/22 00:29:53;;;;;;;10.83;6.53;;;;;;;;;;5037856;28;20056;-80
2023/05/22 00:32:18;;;;;;;8.37;5.90;;;;;;;;;;5055481;28;20771;-81
2023/05/22 00:34:43;;;;;;;7.75;5.65;;;;;;;;;;5057614;28;20637;-81
2023/05/22 00:37:14;;;;;;;9.57;6.45;;;;;;;;;;5060397;28;20064;-81
2023/05/22 00:39:39;;;;;;;8.82;6.05;;;;;;;;;;5060849;28;20093;-82
2023/05/22 00:42:04;;;;;;;8.07;6.07;;;;;;;;;;5059966;28;20064;-82
2023/05/22 00:44:30;;;;;;;9.05;6.03;;;;;;;;;;5042683;28;20074;-81
2023/05/22 00:46:55;;;;;;;10.75;6.45;;;;;;;;;;5063738;28;20029;-81
2023/05/22 00:49:21;;;;;;;8.05;6.10;;;;;;;;;;5064526;28;20063;-81
2023/05/22 00:51:46;;;;;;;9.98;6.53;;;;;;;;;;5063891;28;20100;-81
2023/05/22 00:54:12;;;;;;;9.35;5.85;;;;;;;;;;5064426;28;20120;-80
2023/05/22 00:56:40;;;;;;;10.23;5.80;;;;;;;;;;5044013;28;20029;-79
2023/05/22 00:59:05;;;;;;;8.35;6.47;;;;;;;;;;5061473;28;20021;-80
2023/05/22 01:01:32;;;;;;;9.60;6.72;;;;;;;;;;5062046;28;20060;-79
2023/05/22 01:04:00;;;;;;;13.18;5.90;;;;;;;;;;5061322;28;20025;-82
2023/05/22 01:06:26;;;;;;;9.75;6.57;;;;;;;;;;5062315;28;20025;-82
2023/05/22 01:08:51;;;;;;;8.10;6.03;;;;;;;;;;5061654;28;20525;-81
2023/05/22 01:11:50;;;;;;;8.85;6.05;;;;;;;;;;5060307;28;20056;-79
2023/05/22 01:14:47;;;;;;;11.18;6.20;;;;;;;;;;5060046;28;20052;-80
2023/05/22 01:17:22;;;;;;;9.68;6.45;;;;;;;;;;5042330;28;20029;-80
2023/05/22 01:20:00;;;;;;;8.40;6.05;;;;;;;;;;5060680;28;20108;-78
2023/05/22 01:22:57;;;;;;;11.38;6.10;;;;;;;;;;5042388;28;20064;-79
2023/05/22 01:26:03;;;;;;;8.45;6.25;;;;;;;;;;5059993;28;20025;-80
2023/05/22 01:28:53;;;;;;;11.02;6.15;;;;;;;;;;5058840;28;20033;-80
2023/05/22 01:31:24;;;;;;;9.30;6.28;;;;;;;;;;5059590;28;20035;-80
2023/05/22 01:34:01;;;;;;;12.98;6.55;;;;;;;;;;5041493;28;20020;-78
2023/05/22 01:36:30;;;;;;;9.85;6.00;;;;;;;;;;5059204;28;20033;-81
2023/05/22 01:38:59;;;;;;;7.60;5.65;;;;;;;;;;5059775;28;20024;-81
2023/05/22 01:41:26;;;;;;;7.22;6.10;;;;;;;;;;5059711;28;20036;-82
2023/05/22 01:43:51;;;;;;;9.25;5.65;;;;;;;;;;5058951;28;20036;-82
2023/05/22 01:46:16;;;;;;;8.98;5.93;;;;;;;;;;5058648;28;20025;-82
2023/05/22 01:48:42;;;;;;;7.57;6.13;;;;;;;;;;5040419;28;20396;-80
2023/05/22 01:51:50;;;;;;;11.53;6.20;;;;;;;;;;5058379;28;20648;-80
2023/05/22 01:54:42;;;;;;;8.77;6.28;;;;;;;;;;5019822;28;20357;-81
2023/05/22 01:57:37;;;;;;;7.47;6.20;;;;;;;;;;5039342;28;20033;-81
2023/05/22 02:00:08;;;;;;;9.82;6.18;;;;;;;;;;5056961;28;20115;-81
2023/05/22 02:02:39;;;;;;;12.93;5.78;;;;;;;;;;5040392;28;20100;-81
2023/05/22 02:05:08;;;;;;;10.32;6.25;;;;;;;;;;5040467;28;20028;-81
2023/05/22 02:07:36;;;;;;;8.10;5.63;;;;;;;;;;5058052;28;20563;-80
2023/05/22 02:10:02;;;;;;;12.27;6.72;;;;;;;;;;5040684;28;20144;-81
2023/05/22 02:12:28;;;;;;;10.65;6.68;;;;;;;;;;5058224;28;20526;-81
2023/05/22 02:14:54;;;;;;;7.78;5.95;;;;;;;;;;5058111;28;20067;-80
2023/05/22 02:17:20;;;;;;;12.30;6.70;;;;;;;;;;5058667;28;20020;-82
2023/05/22 02:19:46;;;;;;;9.65;6.70;;;;;;;;;;5057610;28;20025;-81
2023/05/22 02:22:14;;;;;;;7.88;6.25;;;;;;;;;;5039855;28;20407;-81
2023/05/22 02:24:43;;;;;;;10.00;6.75;;;;;;;;;;5058363;28;20455;-81
2023/05/22 02:27:08;;;;;;;11.52;6.38;;;;;;;;;;5058351;28;20032;-82
2023/05/22 02:29:33;;;;;;;11.73;6.43;;;;;;;;;;5039565;28;20029;-81
2023/05/22 02:31:59;;;;;;;9.13;6.60;;;;;;;;;;5057406;28;20025;-79
2023/05/22 02:34:25;;;;;;;10.40;6.27;;;;;;;;;;5057393;28;20029;-81
2023/05/22 02:36:50;;;;;;;9.63;6.80;;;;;;;;;;5039160;28;20345;-80
2023/05/22 02:39:17;;;;;;;10.53;6.30;;;;;;;;;;5057879;28;20519;-80
2023/05/22 02:41:42;;;;;;;9.60;6.65;;;;;;;;;;5057272;28;20346;-79
2023/05/22 02:44:07;;;;;;;11.10;6.40;;;;;;;;;;5040006;28;20052;-79
2023/05/22 02:46:33;;;;;;;9.63;6.47;;;;;;;;;;5058213;28;20253;-79
2023/05/22 02:48:58;;;;;;;8.32;6.32;;;;;;;;;;5039547;28;20249;-80
2023/05/22 02:51:23;;;;;;;7.60;6.43;;;;;;;;;;5057996;28;20574;-80
2023/05/22 02:53:48;;;;;;;9.50;6.50;;;;;;;;;;5039304;28;20300;-80
2023/05/22 02:56:14;;;;;;;11.40;6.57;;;;;;;;;;5056978;28;20653;-80
2023/05/22 02:58:39;;;;;;;10.88;6.97;;;;;;;;;;5056982;28;20333;-79
2023/05/22 03:01:05;;;;;;;9.27;6.43;;;;;;;;;;5056642;28;20017;-80
2023/05/22 03:03:31;;;;;;;9.13;6.45;;;;;;;;;;5056542;28;20036;-79
2023/05/22 03:05:57;;;;;;;11.68;7.30;;;;;;;;;;5056803;28;20032;-79
2023/05/22 03:08:23;;;;;;;10.43;6.72;;;;;;;;;;5056626;28;20033;-81
2023/05/22 03:10:49;;;;;;;11.35;6.80;;;;;;;;;;5056103;28;20021;-79
2023/05/22 03:13:14;;;;;;;10.15;6.78;;;;;;;;;;5038346;28;20032;-81
2023/05/22 03:15:40;;;;;;;11.90;6.65;;;;;;;;;;5056689;28;20107;-81
2023/05/22 03:18:05;;;;;;;9.57;6.85;;;;;;;;;;5039021;28;20500;-81
2023/05/22 03:20:32;;;;;;;12.10;7.60;;;;;;;;;;5056987;28;20048;-78
2023/05/22 03:22:58;;;;;;;9.27;6.97;;;;;;;;;;5056893;28;20033;-81
2023/05/22 03:25:23;;;;;;;9.43;6.70;;;;;;;;;;5056476;28;20147;-80
2023/05/22 03:27:48;;;;;;;7.88;6.50;;;;;;;;;;5039683;28;20020;-80
2023/05/22 03:30:14;;;;;;;8.27;6.68;;;;;;;;;;5057297;28;20074;-80
2023/05/22 03:32:39;;;;;;;9.55;6.55;;;;;;;;;;5056876;28;20036;-80
2023/05/22 03:35:05;;;;;;;10.52;6.43;;;;;;;;;;5057060;28;20055;-80
2023/05/22 03:37:30;;;;;;;11.68;7.03;;;;;;;;;;5057122;28;20028;-81
2023/05/22 03:39:55;;;;;;;10.27;7.30;;;;;;;;;;5038612;28;20057;-80
2023/05/22 03:42:21;;;;;;;8.40;6.88;;;;;;;;;;5056764;28;20296;-81
2023/05/22 03:44:46;;;;;;;11.10;6.95;;;;;;;;;;5056381;28;20017;-80
2023/05/22 03:47:11;;;;;;;11.85;6.97;;;;;;;;;;5039243;28;20480;-81
2023/05/22 03:49:36;;;;;;;8.87;6.57;;;;;;;;;;5038975;28;20028;-81
2023/05/22 03:52:05;;;;;;;10.57;7.03;;;;;;;;;;5039323;28;20286;-81
2023/05/22 03:54:30;;;;;;;7.85;5.95;;;;;;;;;;5056557;28;20269;-81
2023/05/22 03:56:55;;;;;;;10.13;6.13;;;;;;;;;;5039042;28;20112;-80
2023/05/22 03:59:20;;;;;;;11.93;6.63;;;;;;;;;;5056385;28;20265;-80
2023/05/22 04:01:47;;;;;;;11.18;6.53;;;;;;;;;;5056979;28;20254;-81
2023/05/22 04:04:12;;;;;;;9.45;6.50;;;;;;;;;;5057113;28;20032;-82
2023/05/22 04:06:44;;;;;;;8.73;6.80;;;;;;;;;;5039013;28;20401;-81
2023/05/22 04:09:10;;;;;;;8.75;6.70;;;;;;;;;;5056970;28;20075;-81
2023/05/22 04:11:38;;;;;;;10.60;6.82;;;;;;;;;;5038778;28;20025;-81
2023/05/22 04:14:04;;;;;;;8.20;5.82;;;;;;;;;;5056843;28;20021;-81
2023/05/22 04:16:30;;;;;;;9.77;6.25;;;;;;;;;;5038659;28;20027;-81
2023/05/22 04:18:56;;;;;;;11.25;6.35;;;;;;;;;;5056701;28;20493;-82
2023/05/22 04:21:22;;;;;;;9.82;6.25;;;;;;;;;;5038078;28;20017;-81
2023/05/22 04:23:48;;;;;;;7.43;5.75;;;;;;;;;;5039219;28;20025;-81
2023/05/22 04:26:13;;;;;;;11.25;6.22;;;;;;;;;;5056853;28;20025;-81
2023/05/22 04:28:39;;;;;;;9.57;5.90;;;;;;;;;;5056587;28;20029;-81
2023/05/22 04:31:05;;;;;;;8.07;5.93;;;;;;;;;;5056535;28;20021;-81
2023/05/22 04:33:33;;;;;;;8.40;5.95;;;;;;;;;;5057276;28;20453;-81
2023/05/22 04:35:59;;;;;;;9.07;6.22;;;;;;;;;;5057979;28;20035;-81
2023/05/22 04:38:26;;;;;;;8.32;5.93;;;;;;;;;;5057549;28;20041;-81
2023/05/22 04:40:51;;;;;;;10.57;6.25;;;;;;;;;;5043040;28;20051;-81
2023/05/22 04:43:17;;;;;;;7.70;6.05;;;;;;;;;;5060167;28;20021;-81
2023/05/22 04:45:42;;;;;;;8.55;5.70;;;;;;;;;;5043679;28;20037;-81
2023/05/22 04:48:08;;;;;;;8.98;5.88;;;;;;;;;;5062511;28;20048;-81
2023/05/22 04:50:34;;;;;;;10.15;5.70;;;;;;;;;;5042419;28;20051;-81
2023/05/22 04:53:02;;;;;;;9.77;5.95;;;;;;;;;;5045310;28;20411;-81
2023/05/22 04:55:32;;;;;;;9.00;5.97;;;;;;;;;;5047257;28;20137;-81
2023/05/22 04:57:58;;;;;;;12.18;6.70;;;;;;;;;;5065194;28;20025;-81
2023/05/22 05:00:25;;;;;;;8.60;6.40;;;;;;;;;;5067175;28;20027;-81
2023/05/22 05:02:51;;;;;;;13.38;6.35;;;;;;;;;;5047997;28;20025;-81
2023/05/22 05:05:16;;;;;;;8.48;5.70;;;;;;;;;;5065674;28;20051;-81
2023/05/22 05:07:42;;;;;;;10.17;6.30;;;;;;;;;;5064515;28;20029;-81
2023/05/22 05:10:08;;;;;;;11.43;5.90;;;;;;;;;;5064556;28;20288;-82
2023/05/22 05:12:33;;;;;;;9.00;5.93;;;;;;;;;;5064915;28;20025;-82
2023/05/22 05:14:58;;;;;;;12.25;6.53;;;;;;;;;;5066581;28;20040;-82
2023/05/22 05:17:23;;;;;;;15.65;6.07;;;;;;;;;;5067289;28;20063;-81
2023/05/22 05:19:49;;;;;;;8.95;5.80;;;;;;;;;;5064502;28;20032;-78
2023/05/22 05:22:14;;;;;;;9.95;5.82;;;;;;;;;;5046648;28;20021;-80
2023/05/22 05:24:39;;;;;;;8.30;6.73;;;;;;;;;;5064435;28;20032;-81
2023/05/22 05:27:05;;;;;;;7.93;6.00;;;;;;;;;;5065485;28;20260;-81
2023/05/22 05:29:30;;;;;;;8.52;5.97;;;;;;;;;;5066499;28;20079;-81
2023/05/22 05:31:55;;;;;;;8.87;5.90;;;;;;;;;;5065573;28;20025;-81
2023/05/22 05:34:20;;;;;;;10.20;5.80;;;;;;;;;;5070475;28;20287;-81
2023/05/22 05:36:46;;;;;;;9.40;5.90;;;;;;;;;;5069529;28;20316;-81
2023/05/22 05:39:11;;;;;;;7.72;5.70;;;;;;;;;;5051775;28;20273;-80
2023/05/22 05:41:36;;;;;;;8.82;5.57;;;;;;;;;;5069851;28;20021;-80
2023/05/22 05:44:01;;;;;;;10.90;5.72;;;;;;;;;;5071659;28;20032;-80
2023/05/22 05:46:27;;;;;;;7.13;5.30;;;;;;;;;;5071182;28;20057;-81
2023/05/22 05:48:52;;;;;;;9.20;5.60;;;;;;;;;;5051225;28;20032;-80
2023/05/22 05:51:17;;;;;;;9.98;5.40;;;;;;;;;;5052426;28;20116;-81
2023/05/22 05:53:42;;;;;;;7.37;5.70;;;;;;;;;;5070839;28;20052;-81
2023/05/22 05:56:08;;;;;;;9.55;5.65;;;;;;;;;;5070048;28;20261;-80
2023/05/22 05:58:33;;;;;;;8.10;5.13;;;;;;;;;;5070485;28;20151;-80
2023/05/22 06:00:59;;;;;;;14.17;5.63;;;;;;;;;;5069231;28;20025;-81
2023/05/22 06:03:24;;;;;;;10.20;5.95;;;;;;;;;;5068181;28;20262;-81
2023/05/22 06:05:50;;;;;;;9.73;5.80;;;;;;;;;;5068451;28;20036;-81
2023/05/22 06:08:15;;;;;;;14.20;5.47;;;;;;;;;;5067978;28;20029;-80
2023/05/22 06:10:41;;;;;;;6.97;5.40;;;;;;;;;;5068685;28;20025;-80
2023/05/22 06:13:06;;;;;;;9.73;5.72;;;;;;;;;;5069144;28;20024;-81
2023/05/22 06:15:31;;;;;;;9.07;5.28;;;;;;;;;;5067334;28;20170;-81
2023/05/22 06:17:57;;;;;;;8.82;5.43;;;;;;;;;;5066699;28;20029;-82
2023/05/22 06:20:24;;;;;;;10.40;5.55;;;;;;;;;;5063910;28;20028;-81
2023/05/22 06:22:49;;;;;;;7.07;5.22;;;;;;;;;;5065539;28;20049;-80
2023/05/22 06:25:15;;;;;;;9.88;5.57;;;;;;;;;;5064336;28;20078;-79
2023/05/22 06:27:41;;;;;;;9.20;5.32;;;;;;;;;;5064686;28;20059;-80
2023/05/22 06:30:07;;;;;;;7.10;5.15;;;;;;;;;;5046580;28;20024;-80
2023/05/22 06:32:32;;;;;;;7.88;5.00;;;;;;;;;;5063490;28;20024;-80
2023/05/22 06:34:57;;;;;;;10.27;5.53;;;;;;;;;;5063208;28;20032;-80
2023/05/22 06:37:23;;;;;;;8.53;5.03;;;;;;;;;;5060815;28;20254;-81
2023/05/22 06:39:48;;;;;;;8.05;5.07;;;;;;;;;;5060095;28;20268;-80
2023/05/22 06:42:13;;;;;;;6.97;5.07;;;;;;;;;;5061085;28;20025;-80
2023/05/22 06:44:38;;;;;;;6.83;4.77;;;;;;;;;;5041409;28;20270;-79
2023/05/22 06:47:04;;;;;;;10.57;4.63;;;;;;;;;;5057940;28;20755;-80
2023/05/22 06:49:29;;;;;;;7.88;4.97;;;;;;;;;;5058982;28;20297;-81
2023/05/22 06:51:54;;;;;;;6.97;4.60;;;;;;;;;;5058170;28;20029;-81
2023/05/22 06:54:20;;;;;;;8.45;4.40;;;;;;;;;;5057995;28;20254;-81
2023/05/22 06:56:45;;;;;;;6.20;4.25;;;;;;;;;;5039682;28;20040;-81
2023/05/22 06:59:10;;;;;;;8.98;4.80;;;;;;;;;;5057930;28;20090;-80
2023/05/22 07:01:36;;;;;;;8.13;4.55;;;;;;;;;;5057812;28;20017;-80
2023/05/22 07:04:03;;;;;;;13.25;4.70;;;;;;;;;;5057567;28;20017;-81
2023/05/22 07:06:32;;;;;;;7.68;4.40;;;;;;;;;;5058780;28;20103;-81
2023/05/22 07:08:58;;;;;;;10.43;4.38;;;;;;;;;;5039960;28;20031;-81
2023/05/22 07:11:23;;;;;;;9.85;4.50;;;;;;;;;;5057630;28;20111;-80
2023/05/22 07:13:48;;;;;;;8.53;4.03;;;;;;;;;;5058329;28;20027;-80
2023/05/22 07:16:13;;;;;;;6.70;4.33;;;;;;;;;;5057965;28;20290;-80
2023/05/22 07:18:40;;;;;;;6.75;4.10;;;;;;;;;;5058008;28;20599;-80
2023/05/22 07:21:06;;;;;;;7.03;4.28;;;;;;;;;;5057693;28;20154;-80
2023/05/22 07:23:31;;;;;;;7.20;3.95;;;;;;;;;;5057283;28;20049;-80
2023/05/22 07:25:56;;;;;;;12.23;4.23;;;;;;;;;;5057233;28;20033;-80
2023/05/22 07:28:21;;;;;;;8.03;4.10;;;;;;;;;;5057654;28;20341;-81
2023/05/22 07:30:46;;;;;;;5.87;4.00;;;;;;;;;;5057207;28;20764;-81
2023/05/22 07:33:12;;;;;;;4.87;3.97;;;;;;;;;;5057421;28;20288;-81
2023/05/22 07:35:38;;;;;;;8.65;4.10;;;;;;;;;;5057161;28;20733;-80
2023/05/22 07:38:03;;;;;;;8.33;3.97;;;;;;;;;;5057253;28;20060;-80
2023/05/22 07:40:28;;;;;;;7.33;4.03;;;;;;;;;;5056764;28;20250;-79
2023/05/22 07:42:53;;;;;;;7.18;4.13;;;;;;;;;;5058859;28;20269;-81
2023/05/22 07:45:18;;;;;;;6.07;3.40;;;;;;;;;;5061366;28;20167;-81
2023/05/22 07:47:44;;;;;;;6.53;3.67;;;;;;;;;;5060056;28;20266;-82
2023/05/22 07:50:09;;;;;;;8.80;3.80;;;;;;;;;;5041824;28;20252;-82
2023/05/22 07:52:34;;;;;;;4.93;3.47;;;;;;;;;;5060384;28;20512;-82
2023/05/22 07:54:59;;;;;;;6.33;3.90;;;;;;;;;;5058956;28;20488;-82
2023/05/22 07:57:25;;;;;;;7.30;3.33;;;;;;;;;;5041551;28;20343;-81
2023/05/22 07:59:50;;;;;;;7.00;3.30;;;;;;;;;;5041897;28;20276;-79
2023/05/22 08:02:17;;;;;;;7.07;3.40;;;;;;;;;;5041639;28;20064;-82
2023/05/22 08:04:43;;;;;;;5.88;2.95;;;;;;;;;;5059563;28;20472;-82
2023/05/22 08:07:09;;;;;;;4.65;2.97;;;;;;;;;;5041743;28;20106;-82
2023/05/22 08:09:34;;;;;;;5.88;3.08;;;;;;;;;;5059993;28;20025;-81
2023/05/22 08:11:59;;;;;;;8.50;3.55;;;;;;;;;;5059732;28;20506;-80
2023/05/22 08:14:25;;;;;;;6.45;3.33;;;;;;;;;;5059235;28;20051;-81
2023/05/22 08:16:50;;;;;;;4.67;3.10;;;;;;;;;;5059542;28;20492;-82
2023/05/22 08:19:15;;;;;;;5.70;3.22;;;;;;;;;;5041207;28;20280;-82
2023/05/22 08:21:40;;;;;;;6.90;2.97;;;;;;;;;;5059730;28;20024;-81
2023/05/22 08:24:07;;;;;;;5.07;2.87;;;;;;;;;;5041738;28;20491;-81
2023/05/22 08:26:32;;;;;;;3.72;2.70;;;;;;;;;;5059701;28;20270;-81
2023/05/22 08:28:58;;;;;;;5.28;2.85;;;;;;;;;;5059804;28;20052;-81
2023/05/22 08:31:23;;;;;;;4.38;2.67;;;;;;;;;;5059633;28;20029;-81
2023/05/22 08:33:49;;;;;;;3.97;2.70;;;;;;;;;;5059958;28;20088;-82
2023/05/22 08:36:14;;;;;;;7.93;3.00;;;;;;;;;;5059898;28;20076;-82
2023/05/22 08:38:39;;;;;;;6.70;2.77;;;;;;;;;;5041653;28;20316;-82
2023/05/22 08:41:06;;;;;;;4.20;2.80;;;;;;;;;;5041993;28;20265;-80
2023/05/22 08:43:31;;;;;;;5.28;2.75;;;;;;;;;;5059086;28;20467;-80
2023/05/22 08:46:07;;;;;;;11.43;3.07;;;;;;;;;;5059242;28;20025;-81
2023/05/22 08:48:33;;;;;;;6.50;2.97;;;;;;;;;;5059075;28;20270;-81
2023/05/22 08:51:02;;;;;;;4.78;2.60;;;;;;;;;;5059634;28;20342;-81
2023/05/22 08:53:29;;;;;;;5.47;2.88;;;;;;;;;;5041432;28;20098;-81
2023/05/22 08:55:55;;;;;;;4.82;3.00;;;;;;;;;;5059252;28;20036;-82
2023/05/22 08:58:21;;;;;;;6.65;2.75;;;;;;;;;;5040564;28;20029;-81
2023/05/22 09:00:46;;;;;;;8.48;3.00;;;;;;;;;;5041364;28;20028;-82
2023/05/22 09:03:14;;;;;;;5.47;3.08;;;;;;;;;;5058598;28;20494;-79
2023/05/22 09:05:40;;;;;;;8.15;2.97;;;;;;;;;;5058758;28;20361;-82
2023/05/22 09:08:08;;;;;;;5.95;3.60;;;;;;;;;;5062896;28;20025;-81
2023/05/22 09:10:34;;;;;;;7.72;3.40;;;;;;;;;;5062824;28;20053;-81
2023/05/22 09:13:02;;;;;;;5.45;3.40;;;;;;;;;;5045361;28;20031;-81
2023/05/22 09:15:30;;;;;;;5.50;3.63;;;;;;;;;;5063219;28;20056;-81
2023/05/22 09:17:55;;;;;;;5.70;3.00;;;;;;;;;;5063283;28;20029;-82
2023/05/22 09:20:20;;;;;;;5.93;3.50;;;;;;;;;;5044912;28;20028;-81
2023/05/22 09:22:46;;;;;;;7.77;3.50;;;;;;;;;;5062198;28;20309;-80
2023/05/22 09:25:17;;;;;;;6.80;3.65;;;;;;;;;;5062426;28;20729;-81
2023/05/22 09:27:47;;;;;;;5.07;3.33;;;;;;;;;;5062064;28;20029;-81
2023/05/22 09:30:16;;;;;;;5.05;3.25;;;;;;;;;;5062007;28;20033;-81
2023/05/22 09:32:42;;;;;;;6.70;3.60;;;;;;;;;;5062974;28;20527;-82
2023/05/22 09:35:07;;;;;;;6.32;3.53;;;;;;;;;;5044788;28;20064;-81
2023/05/22 09:37:37;;;;;;;5.53;2.92;;;;;;;;;;5063191;28;20500;-81
2023/05/22 09:40:04;;;;;;;8.75;3.63;;;;;;;;;;5062935;28;20032;-81
2023/05/22 09:42:37;;;;;;;4.95;3.35;;;;;;;;;;5062363;28;20426;-83
2023/05/22 09:45:04;;;;;;;5.93;3.27;;;;;;;;;;5062774;28;20434;-79
2023/05/22 09:47:29;;;;;;;4.10;3.30;;;;;;;;;;5063088;28;20039;-81
2023/05/22 09:49:57;;;;;;;11.20;3.40;;;;;;;;;;5062497;28;20029;-80
2023/05/22 09:52:22;;;;;;;5.97;3.42;;;;;;;;;;5063890;28;20026;-81
2023/05/22 09:54:54;;;;;;;5.10;3.30;;;;;;;;;;5063014;28;20075;-81
2023/05/22 09:57:21;;;;;;;10.60;3.28;;;;;;;;;;5044561;28;20048;-82
2023/05/22 09:59:53;;;;;;;5.60;3.17;;;;;;;;;;5045219;28;20392;-80
2023/05/22 10:02:21;;;;;;;6.95;2.78;;;;;;;;;;5045536;28;20507;-81
2023/05/22 10:04:48;;;;;;;4.47;3.00;;;;;;;;;;5063168;28;20029;-81
2023/05/22 10:07:14;;;;;;;5.80;3.20;;;;;;;;;;5063016;28;20052;-82
2023/05/22 10:09:41;;;;;;;5.85;2.78;;;;;;;;;;5062629;28;20029;-81
2023/05/22 10:12:09;;;;;;;6.07;3.17;;;;;;;;;;5061736;28;20024;-79
2023/05/22 10:14:35;;;;;;;8.63;3.20;;;;;;;;;;5045221;28;20032;-79
2023/05/22 10:17:03;;;;;;;7.53;2.88;;;;;;;;;;5043804;28;20020;-80
2023/05/22 10:19:31;;;;;;;5.93;3.08;;;;;;;;;;5045019;28;20028;-79
2023/05/22 10:21:59;;;;;;;4.20;2.72;;;;;;;;;;5047452;28;20017;-80
2023/05/22 10:24:24;;;;;;;3.90;3.08;;;;;;;;;;5062676;28;20021;-80
2023/05/22 10:26:52;;;;;;;5.30;2.75;;;;;;;;;;5062999;28;20075;-81
2023/05/22 10:29:36;;;;;;;3.28;2.75;;;;;;;;;;5045339;28;20055;-80
2023/05/22 10:32:11;;;;;;;5.15;2.95;;;;;;;;;;5062639;28;20060;-81
2023/05/22 10:35:03;;;;;;;7.30;3.00;;;;;;;;;;5044428;28;20025;-80
2023/05/22 10:37:41;;;;;;;8.85;3.28;;;;;;;;;;5044444;28;20503;-80
2023/05/22 10:40:08;;;;;;;4.57;2.92;;;;;;;;;;5062142;28;20543;-81
2023/05/22 10:42:36;;;;;;;4.88;2.80;;;;;;;;;;5061699;28;20029;-81
2023/05/22 10:45:03;;;;;;;6.68;2.40;;;;;;;;;;5062212;28;20025;-80
2023/05/22 10:47:28;;;;;;;10.02;3.08;;;;;;;;;;5062508;28;20041;-80
2023/05/22 10:50:08;;;;;;;5.82;2.60;;;;;;;;;;5062201;28;20033;-80
2023/05/22 10:52:34;;;;;;;4.40;2.70;;;;;;;;;;5047106;28;20059;-81
2023/05/22 10:55:00;;;;;;;4.68;2.75;;;;;;;;;;5062952;28;20079;-80
2023/05/22 10:57:30;;;;;;;3.22;2.22;;;;;;;;;;5062113;28;20025;-80
2023/05/22 11:00:06;;;;;;;7.28;3.15;;;;;;;;;;5061998;28;20045;-80
2023/05/22 11:02:37;;;;;;;6.25;2.60;;;;;;;;;;5043864;28;20021;-81
2023/05/22 11:05:17;;;;;;;5.78;2.55;;;;;;;;;;5062174;28;20048;-80
2023/05/22 11:07:42;;;;;;;7.53;2.55;;;;;;;;;;5062089;28;20024;-80
2023/05/22 11:10:08;;;;;;;4.10;2.40;;;;;;;;;;5043327;28;20028;-80
2023/05/22 11:12:33;;;;;;;6.97;2.40;;;;;;;;;;5043987;28;20272;-79
2023/05/22 11:15:09;;;;;;;7.27;2.87;;;;;;;;;;5062414;28;20258;-80
2023/05/22 11:17:43;;;;;;;3.50;2.33;;;;;;;;;;5061614;28;20312;-80
2023/05/22 11:20:17;;;;;;;7.43;2.92;;;;;;;;;;5044292;28;20021;-80
2023/05/22 11:22:48;;;;;;;6.13;2.63;;;;;;;;;;5062264;28;20029;-80
2023/05/22 11:25:18;;;;;;;5.03;2.75;;;;;;;;;;5062090;28;20033;-80
2023/05/22 11:27:46;;;;;;;5.53;2.70;;;;;;;;;;5062503;28;20025;-80
2023/05/22 11:30:12;;;;;;;4.13;2.85;;;;;;;;;;5061329;28;20032;-80
2023/05/22 11:32:40;;;;;;;2.85;2.15;;;;;;;;;;5062750;28;20032;-81
2023/05/22 11:35:07;;;;;;;4.78;2.75;;;;;;;;;;5062891;28;20029;-80
2023/05/22 11:37:36;;;;;;;3.80;2.45;;;;;;;;;;5061905;28;20033;-81
2023/05/22 11:40:04;;;;;;;3.08;2.28;;;;;;;;;;5044702;28;20037;-81
2023/05/22 11:42:29;;;;;;;5.60;2.80;;;;;;;;;;5062844;28;20047;-80
2023/05/22 11:44:55;;;;;;;2.87;1.87;;;;;;;;;;5043789;28;20033;-81
2023/05/22 11:47:21;;;;;;;2.75;1.67;;;;;;;;;;5062183;28;20269;-80
2023/05/22 11:49:46;;;;;;;7.10;2.60;;;;;;;;;;5062796;28;20024;-80
2023/05/22 11:52:14;;;;;;;5.30;2.80;;;;;;;;;;5062246;28;20111;-80
2023/05/22 11:54:40;;;;;;;5.22;2.70;;;;;;;;;;5061657;28;20472;-80
2023/05/22 11:57:06;;;;;;;6.47;2.80;;;;;;;;;;5061662;28;20036;-80
2023/05/22 11:59:32;;;;;;;6.93;2.63;;;;;;;;;;5044556;28;20246;-81
2023/05/22 12:01:58;;;;;;;6.30;2.50;;;;;;;;;;5062545;28;20361;-81
2023/05/22 12:04:24;;;;;;;6.78;2.80;;;;;;;;;;5063056;28;20025;-80
2023/05/22 12:06:50;;;;;;;7.15;3.13;;;;;;;;;;5044390;28;20392;-80
2023/05/22 12:09:15;;;;;;;3.22;2.15;;;;;;;;;;5044227;28;20032;-80
2023/05/22 12:11:46;;;;;;;3.67;2.25;;;;;;;;;;5061862;28;20112;-80
2023/05/22 12:14:12;;;;;;;9.35;3.05;;;;;;;;;;5062641;28;20029;-79
2023/05/22 12:16:38;;;;;;;4.18;2.20;;;;;;;;;;5061650;28;20063;-81
2023/05/22 12:19:07;;;;;;;6.40;2.58;;;;;;;;;;5061169;28;20032;-80
2023/05/22 12:21:34;;;;;;;4.00;2.80;;;;;;;;;;5061009;28;20028;-82
2023/05/22 12:24:02;;;;;;;5.65;2.55;;;;;;;;;;5061690;28;20021;-80
2023/05/22 12:26:27;;;;;;;4.10;2.70;;;;;;;;;;5043701;28;20032;-79
2023/05/22 12:28:54;;;;;;;4.47;2.90;;;;;;;;;;5061204;28;20032;-80
2023/05/22 12:31:22;;;;;;;7.05;2.85;;;;;;;;;;5043787;28;20518;-80
2023/05/22 12:33:47;;;;;;;5.32;2.55;;;;;;;;;;5060814;28;20511;-79
2023/05/22 12:36:12;;;;;;;11.32;2.90;;;;;;;;;;5060527;28;20021;-80
2023/05/22 12:38:40;;;;;;;7.00;2.50;;;;;;;;;;5059776;28;20558;-80
2023/05/22 12:41:05;;;;;;;6.40;2.80;;;;;;;;;;5060256;28;20025;-79
2023/05/22 12:43:30;;;;;;;4.68;2.65;;;;;;;;;;5066613;28;20047;-80
2023/05/22 12:45:56;;;;;;;5.07;2.67;;;;;;;;;;5064953;28;20048;-80
2023/05/22 12:48:21;;;;;;;8.35;2.60;;;;;;;;;;5046698;28;20063;-80
2023/05/22 12:50:47;;;;;;;4.15;2.70;;;;;;;;;;5045923;28;20056;-79
2023/05/22 12:53:12;;;;;;;4.13;2.60;;;;;;;;;;5046533;28;20480;-81
2023/05/22 12:55:38;;;;;;;4.13;2.80;;;;;;;;;;5045817;28;20016;-80
2023/05/22 12:58:04;;;;;;;6.93;2.70;;;;;;;;;;5046083;28;20250;-80
2023/05/22 13:00:29;;;;;;;4.38;2.30;;;;;;;;;;5045771;28;20131;-79
2023/05/22 13:02:55;;;;;;;8.68;2.90;;;;;;;;;;5064594;28;20033;-79
2023/05/22 13:05:20;;;;;;;3.95;2.65;;;;;;;;;;5064645;28;20112;-80
2023/05/22 13:07:46;;;;;;;4.55;2.67;;;;;;;;;;5064694;28;20407;-79
2023/05/22 13:10:12;;;;;;;7.53;3.15;;;;;;;;;;5061467;28;20040;-79
2023/05/22 13:12:37;;;;;;;3.30;2.47;;;;;;;;;;5043960;28;20017;-80
2023/05/22 13:15:02;;;;;;;4.03;2.70;;;;;;;;;;5061364;28;20020;-79
2023/05/22 13:17:28;;;;;;;4.55;2.80;;;;;;;;;;5044540;28;20272;-81
2023/05/22 13:19:53;;;;;;;8.80;2.90;;;;;;;;;;5062729;28;20021;-79
2023/05/22 13:22:19;;;;;;;10.02;3.00;;;;;;;;;;5064550;28;20119;-80
2023/05/22 13:24:44;;;;;;;5.22;2.55;;;;;;;;;;5063089;28;20032;-81
2023/05/22 13:27:10;;;;;;;6.55;2.80;;;;;;;;;;5065004;28;20020;-81
2023/05/22 13:29:35;;;;;;;3.50;2.53;;;;;;;;;;5065107;28;20028;-81
2023/05/22 13:32:00;;;;;;;5.57;2.67;;;;;;;;;;5064982;28;20032;-81
2023/05/22 13:34:27;;;;;;;5.80;2.83;;;;;;;;;;5064509;28;20653;-81
2023/05/22 13:36:52;;;;;;;5.15;2.47;;;;;;;;;;5045648;28;20028;-81
2023/05/22 13:39:17;;;;;;;6.47;3.10;;;;;;;;;;5063842;28;20029;-80
2023/05/22 13:41:43;;;;;;;11.63;2.70;;;;;;;;;;5063734;28;20025;-80
2023/05/22 13:44:08;;;;;;;6.80;4.30;;;;;;;;;;5063747;28;20273;-81
2023/05/22 13:46:34;;;;;;;3.70;2.97;;;;;;;;;;5064965;28;20032;-80
2023/05/22 13:48:59;;;;;;;5.23;3.10;;;;;;;;;;5064540;28;20369;-81
2023/05/22 13:51:24;;;;;;;6.10;3.15;;;;;;;;;;5063796;28;20465;-81
2023/05/22 13:53:49;;;;;;;6.18;2.85;;;;;;;;;;5061938;28;20029;-80
2023/05/22 13:56:15;;;;;;;5.03;2.80;;;;;;;;;;5045953;28;20067;-81
2023/05/22 13:58:40;;;;;;;6.55;2.88;;;;;;;;;;5045730;28;20029;-81
2023/05/22 14:01:05;;;;;;;3.90;2.37;;;;;;;;;;5063400;28;20016;-81
2023/05/22 14:03:30;;;;;;;5.23;2.53;;;;;;;;;;5063709;28;20250;-81
2023/05/22 14:05:55;;;;;;;6.67;2.30;;;;;;;;;;5065263;28;20051;-80
2023/05/22 14:08:21;;;;;;;4.07;2.58;;;;;;;;;;5046337;28;20262;-81
2023/05/22 14:10:46;;;;;;;7.47;2.53;;;;;;;;;;5063282;28;20089;-79
2023/05/22 14:13:11;;;;;;;9.83;2.80;;;;;;;;;;5062872;28;20141;-80
2023/05/22 14:15:36;;;;;;;7.03;2.58;;;;;;;;;;5045273;28;20269;-80
2023/05/22 14:18:02;;;;;;;4.97;2.50;;;;;;;;;;5062651;28;20109;-80
2023/05/22 14:20:27;;;;;;;7.60;2.83;;;;;;;;;;5045135;28;20250;-81
2023/05/22 14:22:52;;;;;;;4.27;2.57;;;;;;;;;;5063051;28;20036;-79
2023/05/22 14:25:17;;;;;;;6.37;2.80;;;;;;;;;;5063360;28;20265;-80
2023/05/22 14:27:43;;;;;;;8.48;2.58;;;;;;;;;;5063352;28;20033;-80
2023/05/22 14:30:12;;;;;;;6.90;2.93;;;;;;;;;;5062792;28;20118;-79
2023/05/22 14:32:40;;;;;;;7.05;3.10;;;;;;;;;;5062245;28;20032;-81
2023/05/22 14:35:06;;;;;;;6.00;2.60;;;;;;;;;;5045923;28;20029;-80
2023/05/22 14:37:31;;;;;;;8.77;2.88;;;;;;;;;;5062970;28;20032;-80
2023/05/22 14:39:57;;;;;;;7.45;2.70;;;;;;;;;;5045382;28;20031;-81